Terminal Aerodrome Forecast
Issued by NWS

Home | Current Version | Previous Version | Text Only | Print | Product List | Glossary On
Versions: 1 2 3 4 5 6 7 8 9 10 11 12 13 14 15 16 17 18 19 20 21 22 23 24 25 26 27 28 29 30 31 32 33
000
FTUS41 KRNK 140520
TAFLWB
TAF
KLWB 140520Z 1406/1506 00000KT P6SM SCT250
     FM141300 13003KT P6SM OVC150
     FM142100 14005KT P6SM -SN SCT020 OVC050
     FM150100 13005KT 2SM -SN BR OVC020=

USA.gov is the U.S. government's official web portal to all federal, state and local government web resources and services.